Terminal Aerodrome Forecast
Issued by NWS

Home | Current Version | Previous Version | Text Only | Print | Product List | Glossary On
Versions: 1 2 3 4 5 6 7 8 9 10 11 12 13 14 15 16 17 18 19 20
000
FTUS41 KBTV 011418 AAC
TAFMSS
TAF AMD
KMSS 011418Z 0114/0212 00000KT 6SM BR SCT002
      TEMPO 0114/0115 2SM BR OVC002
     FM011500 23007KT P6SM FEW200=

USA.gov is the U.S. government's official web portal to all federal, state and local government web resources and services.